• Join FlightAware (Why Join?)
  • Login
  • US Flag 
07:57AM EDT


 

Airport Tracker/Info


-or-


 

Live Flight TrackerFlight Track Log ✈ BMBR610 ✈ 28-Feb-2013 ✈ YPJT / JAD - YPJT / JAD

Flight Track Log - Related Links

Times and Time Zones

All times are in EST time to prevent confusion due to time zone crossing. See the BMBR610 flight status page for this flight to view local times or setup timezone preferences in your user account.

Time Position Orientation Groundspeed Altitude Reporting Facility
EST Latitude Longitude Course Direction KTS MPH feet Rate Location/Type
12:10AM -32.1834 115.7358 356° North 145 167 1,600  Level Aus ATC (RADAR)
12:11AM -32.1434 115.7327 356° North 164 189 1,300 -300 Descending Aus ATC (RADAR)
12:11AM -32.1176 115.7310 357° North 158 182 1,200  Descending Aus ATC (RADAR)
12:12AM -32.0826 115.7336 North 148 170 1,300 60 Climbing Aus ATC (RADAR)
12:12AM -32.0728 115.7349 North 145 167 1,300 60 Level Aus ATC (RADAR)
12:13AM -32.0330 115.7579 26° Northeast 136 157 1,400 60 Climbing Aus ATC (RADAR)
12:14AM -32.0180 115.7709 36° Northeast 133 153 1,400  Level Aus ATC (RADAR)
12:14AM -32.0074 115.7797 35° Northeast 137 158 1,400 120 Level Aus ATC (RADAR)
12:15AM -31.9927 115.7935 39° Northeast 131 151 1,500  Climbing Aus ATC (RADAR)
12:15AM -31.9704 115.8148 39° Northeast 136 157 1,400 -120 Descending Aus ATC (RADAR)
12:16AM -31.9556 115.8296 40° Northeast 138 159 1,400  Level Aus ATC (RADAR)
12:17AM -31.9383 115.8461 39° Northeast 136 157 1,400  Level Aus ATC (RADAR)
12:17AM -31.9170 115.8675 40° Northeast 135 155 1,400  Level Aus ATC (RADAR)
12:19AM -31.8812 115.9026 40° Northeast 132 152 1,400 -60 Level Aus ATC (RADAR)
12:19AM -31.8667 115.9168 40° Northeast 136 157 1,300 -120 Descending Aus ATC (RADAR)
12:19AM -31.8578 115.9268 44° Northeast 133 153 1,300 60 Level Aus ATC (RADAR)
12:20AM -31.8390 115.9452 40° Northeast 129 148 1,400 120 Climbing Aus ATC (RADAR)
12:21AM -31.8182 115.9649 39° Northeast 128 147 1,500 -180 Climbing Aus ATC (RADAR)
12:21AM -31.8013 115.9818 41° Northeast 135 155 1,200 -120 Descending Aus ATC (RADAR)
12:22AM -31.7739 116.0095 41° Northeast 138 159 1,400 120 Climbing Aus ATC (RADAR)
12:23AM -31.7688 116.0181 55° Northeast 131 151 1,400 -180 Level Aus ATC (RADAR)
12:24AM -31.7392 116.0598 50° Northeast 128 147 1,200 -120 Descending Aus ATC (RADAR)
12:24AM -31.7362 116.0696 70° East 127 146 1,300 60 Climbing Aus ATC (RADAR)
12:25AM -31.7196 116.0873 42° Northeast 127 146 1,300 60 Level Aus ATC (RADAR)
12:26AM -31.7112 116.0672 296° West 147 169 1,400 60 Climbing Aus ATC (RADAR)
12:26AM -31.7049 116.0873 70° East 149 171 1,400 -120 Level Aus ATC (RADAR)
12:27AM -31.7208 116.0756 212° Southwest 142 163 1,200 -360 Descending Aus ATC (RADAR)
12:28AM -31.7063 116.0884 37° Northeast 144 166 900 -540 Descending Aus ATC (RADAR)
12:29AM -31.7031 116.1102 80° East 168 193 400 180 Descending Aus ATC (RADAR)
12:29AM -31.7286 116.0885 216° Southwest 115 132 1,200 600 Climbing Aus ATC (RADAR)
12:30AM -31.7442 116.0704 225° Southwest 140 161 1,000 -180 Descending Aus ATC (RADAR)
12:31AM -31.7308 116.0377 296° West 130 150 1,000  Level Aus ATC (RADAR)
12:31AM -31.7131 116.0139 311° West 156 180 1,000 -180 Level Aus ATC (RADAR)
12:32AM -31.6835 116.0031 343° North 141 162 800 -180 Descending Aus ATC (RADAR)
12:33AM -31.6648 115.9986 348° North 136 157 800 -360 Level Aus ATC (RADAR)
12:34AM -31.6528 116.0126 45° Northeast 103 119 200 -420 Descending Aus ATC (RADAR)
12:34AM -31.6671 116.0141 175° South 90 104 100 -120 Descending Aus ATC (RADAR)
12:35AM -31.6719 116.0146 175° South 79 91 100  Level Aus ATC (RADAR)
12:35AM -31.6787 116.0158 171° South 36 41 100  Level Aus ATC (RADAR)
12:36AM -31.6796 116.0173 122° Southeast 14 16 100  Level Aus ATC (RADAR)
12:38AM -31.6860 116.0153 318° Northwest  Level Estimated
12:45AM -31.7122 116.0067 318° Northwest  Level Estimated
12:46AM -31.7159 116.0055 318° Northwest  Level Estimated
12:47AM -31.7197 116.0043 318° Northwest  Level Estimated
12:48AM -31.7234 116.0031 318° Northwest  Level Estimated
12:49AM -31.7271 116.0019 318° Northwest  Level Estimated
12:50AM -31.7309 116.0006 318° Northwest  Level Estimated
12:51AM -31.7346 115.9994 318° Northwest  Level Estimated
12:51AM -31.6984 116.0166 318° Northwest 101 116 500  Level Aus ATC (RADAR)
12:52AM -31.7152 116.0165 180° South 105 121 800 480 Climbing Aus ATC (RADAR)
12:52AM -31.7355 116.0300 151° Southeast 102 117 1,200 300 Climbing Aus ATC (RADAR)
12:53AM -31.7412 116.0441 116° Southeast 110 127 1,200  Level Aus ATC (RADAR)
12:53AM -31.7463 116.0641 106° East 107 123 1,200 60 Level Aus ATC (RADAR)
12:55AM -31.7142 116.0616 356° North 141 162 1,400 240 Climbing Aus ATC (RADAR)
12:55AM -31.7072 116.0530 314° West 141 162 1,600 -120 Climbing Aus ATC (RADAR)
12:56AM -31.7070 116.0795 89° East 146 168 1,300 -360 Descending Aus ATC (RADAR)
12:56AM -31.7115 116.0561 257° West 152 175 1,100  Descending Aus ATC (RADAR)
12:58AM -31.7137 116.0620 114° Southeast 135 155 1,300 -120 Climbing Aus ATC (RADAR)
12:58AM -31.7089 116.0731 63° Northeast 143 165 900 -360 Descending Aus ATC (RADAR)
12:59AM -31.7051 116.0803 58° Northeast 114 131 900 180 Level Aus ATC (RADAR)
01:00AM -31.7174 116.0913 143° Southeast 131 151 1,200 420 Climbing Aus ATC (RADAR)
01:00AM -31.7391 116.0833 197° South 157 181 1,300  Climbing Aus ATC (RADAR)
01:01AM -31.7392 116.0537 270° West 155 178 1,200  Descending Aus ATC (RADAR)
01:02AM -31.7321 116.0241 286° West 164 189 1,400 180 Climbing Aus ATC (RADAR)
01:03AM -31.7500 116.0521 127° Southeast 136 157 1,600 -120 Climbing Aus ATC (RADAR)
01:03AM -31.7309 116.0502 355° North 153 176 1,300 -360 Descending Aus ATC (RADAR)
01:04AM -31.7326 116.0409 258° West 152 175 1,100 -120 Descending Aus ATC (RADAR)
01:05AM -31.7061 116.0387 356° North 161 185 1,100 -240 Level Aus ATC (RADAR)
01:05AM -31.6955 116.0385 359° North 155 178 900 -120 Descending Aus ATC (RADAR)
01:06AM -31.6709 116.0356 354° North 151 174 1,000 60 Climbing Aus ATC (RADAR)
01:07AM -31.6356 116.0354 360° North 152 175 1,000 -120 Level Aus ATC (RADAR)
01:07AM -31.6230 116.0147 306° West 147 169 900 -540 Descending Aus ATC (RADAR)
01:08AM -31.6472 116.0115 186° South 111 128 300 -600 Descending Aus ATC (RADAR)
01:08AM -31.6554 116.0122 176° South 97 112 200 -60 Descending Aus ATC (RADAR)
01:12AM -31.6669 116.0183 156° South 24 28 100 -60 Descending Aus ATC (RADAR)
01:12AM -31.6689 116.0216 125° Southeast 20 23 100  Level Aus ATC (RADAR)
01:15AM -31.6734 116.0201 318° Northwest  Level Estimated
01:22AM -31.6996 116.0116 318° Northwest  Level Estimated
01:23AM -31.7033 116.0104 318° Northwest  Level Estimated
01:24AM -31.7071 116.0092 318° Northwest  Level Estimated
01:25AM -31.7108 116.0079 318° Northwest  Level Estimated
01:26AM -31.7145 116.0067 318° Northwest  Level Estimated
01:26AM -31.6889 116.0168 318° Northwest 103 119 300  Level Aus ATC (RADAR)
01:27AM -31.7102 116.0177 178° South 106 122 800 720 Climbing Aus ATC (RADAR)
01:27AM -31.7128 116.0317 102° East 101 116 1,300 420 Climbing Aus ATC (RADAR)
01:28AM -31.6943 116.0543 46° Northeast 112 129 1,400 60 Climbing Aus ATC (RADAR)
01:29AM -31.6891 116.0682 66° East 109 125 1,400 -120 Level Aus ATC (RADAR)
01:29AM -31.6839 116.0921 76° East 127 146 1,300 -60 Descending Aus ATC (RADAR)
01:31AM -31.7006 116.1125 134° Southeast 125 144 1,300 -120 Level Aus ATC (RADAR)
01:31AM -31.7006 116.0987 270° West 131 151 1,100 -240 Descending Aus ATC (RADAR)
01:32AM -31.7098 116.0932 207° Southwest 128 147 1,100 180 Level Aus ATC (RADAR)
01:33AM -31.6789 116.1008 12° North 109 125 1,400 120 Climbing Aus ATC (RADAR)
01:33AM -31.6809 116.0722 265° West 137 158 1,400 -360 Level Aus ATC (RADAR)
01:34AM -31.6768 116.0406 279° West 140 161 900 -480 Descending Aus ATC (RADAR)
01:36AM -31.6599 116.0133 306° West 105 121 100 -300 Descending Aus ATC (RADAR)
01:37AM -31.6777 116.0153 175° South 54 62 100  Level Aus ATC (RADAR)
01:38AM -31.6792 116.0184 119° Southeast 15 17 100  Level Aus ATC (RADAR)
01:40AM -31.6857 116.0163 318° Northwest  Level Estimated
01:47AM -31.7119 116.0078 318° Northwest  Level Estimated
01:48AM -31.7156 116.0065 318° Northwest  Level Estimated
01:49AM -31.7194 116.0053 318° Northwest  Level Estimated
01:50AM -31.7231 116.0041 318° Northwest  Level Estimated
01:51AM -31.7269 116.0029 318° Northwest  Level Estimated
01:51AM -31.7060 116.0190 318° Northwest 102 117 600  Level Aus ATC (RADAR)
01:52AM -31.7306 116.0016 318° Northwest  Level Estimated
01:52AM -31.7034 116.0321 77° East 97 112 1,000  Level Aus ATC (RADAR)
01:52AM -31.6927 116.0411 36° Northeast 92 106 1,300 120 Climbing Aus ATC (RADAR)
01:54AM -31.6917 116.0894 89° East 125 144 1,300  Level Aus ATC (RADAR)
01:54AM -31.7020 116.1066 125° Southeast 130 150 1,300 -60 Level Aus ATC (RADAR)
01:56AM -31.7134 116.1091 169° South 127 146 1,200 -360 Descending Aus ATC (RADAR)
01:57AM -31.6963 116.1044 347° North 134 154 500  Descending Aus ATC (RADAR)
01:58AM -31.6793 116.0856 317° Northwest 133 153 1,300 240 Climbing Aus ATC (RADAR)
01:59AM -31.6767 116.0473 275° West 136 157 1,000 -420 Descending Aus ATC (RADAR)
01:59AM -31.6605 116.0430 347° North 115 132 800 -120 Descending Aus ATC (RADAR)
02:00AM -31.6462 116.0388 346° North 101 116 900 60 Climbing Aus ATC (RADAR)
02:01AM -31.6138 116.0275 344° North 93 107 1,000 -60 Climbing Aus ATC (RADAR)
02:02AM -31.5960 116.0070 315° West 100 115 800 -300 Descending Aus ATC (RADAR)
02:03AM -31.6118 116.0066 181° South 96 110 600 -300 Descending Aus ATC (RADAR)
02:03AM -31.6339 116.0097 173° South 85 98 400 -300 Descending Aus ATC (RADAR)
02:04AM -31.6469 116.0110 175° South 83 96 200 -120 Descending Aus ATC (RADAR)
02:06AM -31.6794 116.0166 172° South 22 25 100 -60 Descending Aus ATC (RADAR)
02:06AM -31.6792 116.0178 82° East 14 16 100  Level Aus ATC (RADAR)
02:08AM -31.6840 116.0163 318° Northwest  Level Estimated
02:15AM -31.7102 116.0078 318° Northwest  Level Estimated
02:16AM -31.7139 116.0065 318° Northwest  Level Estimated
02:17AM -31.7177 116.0053 318° Northwest  Level Estimated
02:18AM -31.7214 116.0041 318° Northwest  Level Estimated
02:19AM -31.7251 116.0029 318° Northwest  Level Estimated
02:20AM -31.7289 116.0016 318° Northwest  Level Estimated
02:21AM -31.7326 116.0004 318° Northwest  Level Estimated
02:21AM -31.6888 116.0162 318° Northwest 98 113 400  Level Aus ATC (RADAR)
02:22AM -31.7088 116.0311 148° Southeast 96 110 1,300 540 Climbing Aus ATC (RADAR)
02:22AM -31.6992 116.0365 26° Northeast 89 102 1,300 60 Level Aus ATC (RADAR)
02:23AM -31.6867 116.0687 66° East 110 127 1,400 60 Climbing Aus ATC (RADAR)
02:24AM -31.6838 116.0815 75° East 117 135 1,400 -120 Level Aus ATC (RADAR)
02:24AM -31.6887 116.1024 106° East 130 150 1,300 -180 Descending Aus ATC (RADAR)
02:25AM -31.7131 116.1073 170° South 145 167 1,200 60 Descending Aus ATC (RADAR)
02:26AM -31.7177 116.1032 217° Southwest 139 160 1,400 -60 Climbing Aus ATC (RADAR)
02:27AM -31.7066 116.0918 319° Northwest 120 138 1,100 -240 Descending Aus ATC (RADAR)
02:27AM -31.7043 116.1017 75° East 116 133 1,000 120 Descending Aus ATC (RADAR)
02:29AM -31.6700 116.0849 337° Northwest 140 161 1,400 120 Climbing Aus ATC (RADAR)
02:29AM -31.6563 116.0717 321° Northwest 145 167 1,300 -540 Descending Aus ATC (RADAR)
02:30AM -31.6408 116.0313 294° West 139 160 700 -540 Descending Aus ATC (RADAR)
02:31AM -31.6368 116.0148 286° West 126 145 600 -420 Descending Aus ATC (RADAR)
02:32AM -31.6606 116.0129 184° South 88 101 100 -300 Descending Aus ATC (RADAR)
02:33AM -31.6692 116.0151 167° South 20 23 100  Level Aus ATC (RADAR)
02:35AM -31.6758 116.0131 318° Northwest  Level Estimated
02:42AM -31.7021 116.0049 318° Northwest  Level Estimated
02:43AM -31.7058 116.0037 318° Northwest  Level Estimated
02:44AM -31.7096 116.0026 318° Northwest  Level Estimated
02:44AM -31.7033 116.0133 318° Northwest 102 117 700  Level Aus ATC (RADAR)
02:45AM -31.7133 116.0014 318° Northwest  Level Estimated
02:45AM -31.7093 116.0265 118° Southeast 91 105 1,200  Level Aus ATC (RADAR)
02:46AM -31.6857 116.0658 55° Northeast 125 144 1,300 120 Climbing Aus ATC (RADAR)
02:47AM -31.7037 116.1047 119° Southeast 135 155 1,500 180 Climbing Aus ATC (RADAR)
02:48AM -31.7069 116.1153 109° East 134 154 1,600  Climbing Aus ATC (RADAR)
02:48AM -31.7079 116.1327 94° East 137 158 1,500 -360 Descending Aus ATC (RADAR)
02:49AM -31.7088 116.0957 268° West 154 177 1,100 -180 Descending Aus ATC (RADAR)
02:50AM -31.6996 116.1007 25° Northeast 127 146 1,300  Climbing Aus ATC (RADAR)
02:50AM -31.7094 116.1027 170° South 114 131 1,100 -360 Descending Aus ATC (RADAR)
02:51AM -31.7000 116.1001 347° North 113 130 900 60 Descending Aus ATC (RADAR)
02:52AM -31.6701 116.0733 323° Northwest 162 186 1,300 180 Climbing Aus ATC (RADAR)
02:52AM -31.6501 116.0546 321° Northwest 173 199 1,200 -600 Descending Aus ATC (RADAR)
02:53AM -31.6392 116.0398 311° West 172 198 800 -900 Descending Aus ATC (RADAR)
02:53AM -31.6433 116.0111 261° West 133 153 300 -60 Descending Aus ATC (RADAR)
02:57AM -31.6478 116.0098 318° Northwest  Level Estimated
03:04AM -31.6742 116.0023 318° Northwest  Level Estimated
03:05AM -31.6780 116.0012 318° Northwest  Level Estimated
03:06AM -31.6818 116.0001 318° Northwest  Level Estimated
03:07AM -31.6856 115.9990 318° Northwest  Level Estimated
03:08AM -31.6893 115.9979 318° Northwest  Level Estimated
03:09AM -31.6931 115.9969 318° Northwest  Level Estimated
03:09AM -31.6837 116.0165 318° Northwest 89 102 200  Level Aus ATC (RADAR)
03:10AM -31.6969 115.9958 318° Northwest  Level Estimated
03:10AM -31.7058 116.0265 159° South 90 104 900  Level Aus ATC (RADAR)
03:11AM -31.6975 116.0368 47° Northeast 93 107 1,100 360 Climbing Aus ATC (RADAR)
03:11AM -31.6881 116.0533 56° Northeast 102 117 1,300 180 Climbing Aus ATC (RADAR)
03:12AM -31.6873 116.0865 88° East 123 142 1,400 180 Climbing Aus ATC (RADAR)
03:13AM -31.7060 116.1091 134° Southeast 136 157 1,600 -60 Climbing Aus ATC (RADAR)
03:14AM -31.7031 116.1047 308° West 137 158 1,300 -240 Descending Aus ATC (RADAR)
03:14AM -31.7183 116.0924 214° Southwest 139 160 1,300 -180 Level Aus ATC (RADAR)
03:15AM -31.7289 116.0817 221° Southwest 148 170 1,100 -60 Descending Aus ATC (RADAR)
03:16AM -31.7462 116.0748 199° South 130 150 1,200 60 Climbing Aus ATC (RADAR)
03:17AM -31.7264 116.0920 37° Northeast 114 131 1,200  Level Aus ATC (RADAR)
03:18AM -31.7440 116.0775 215° Southwest 129 148 1,200  Level Aus ATC (RADAR)